sensor_id;sensor_type;location;lat;lon;timestamp;pressure;altitude;pressure_sealevel;temperature;humidity
67738;BME280;54534;43.612;1.572;2023-05-25T00:01:33;99064.59;;;21.13;57.94
67738;BME280;54534;43.612;1.572;2023-05-25T00:03:59;99063.63;;;21.14;58.03
67738;BME280;54534;43.612;1.572;2023-05-25T00:06:26;99062.78;;;21.14;58.05
67738;BME280;54534;43.612;1.572;2023-05-25T00:08:51;99060.28;;;21.12;57.80
67738;BME280;54534;43.612;1.572;2023-05-25T00:11:19;99066.47;;;21.13;58.04
67738;BME280;54534;43.612;1.572;2023-05-25T00:13:47;99068.28;;;21.12;57.94
67738;BME280;54534;43.612;1.572;2023-05-25T00:16:13;99068.28;;;21.12;57.78
67738;BME280;54534;43.612;1.572;2023-05-25T00:18:38;99060.41;;;21.10;57.96
67738;BME280;54534;43.612;1.572;2023-05-25T00:21:04;99077.16;;;21.13;57.92
67738;BME280;54534;43.612;1.572;2023-05-25T00:23:31;99071.09;;;21.10;57.73
67738;BME280;54534;43.612;1.572;2023-05-25T00:25:57;99065.75;;;21.10;57.75
67738;BME280;54534;43.612;1.572;2023-05-25T00:28:22;99061.41;;;21.09;57.81
67738;BME280;54534;43.612;1.572;2023-05-25T00:30:48;99063.22;;;21.09;57.92
67738;BME280;54534;43.612;1.572;2023-05-25T00:33:14;99065.91;;;21.09;57.82
67738;BME280;54534;43.612;1.572;2023-05-25T00:35:41;99062.25;;;21.10;57.66
67738;BME280;54534;43.612;1.572;2023-05-25T00:38:17;99063.22;;;21.09;57.68
67738;BME280;54534;43.612;1.572;2023-05-25T00:40:43;99064.19;;;21.08;57.61
67738;BME280;54534;43.612;1.572;2023-05-25T00:43:09;99060.72;;;21.07;57.73
67738;BME280;54534;43.612;1.572;2023-05-25T00:45:35;99059.88;;;21.07;57.75
67738;BME280;54534;43.612;1.572;2023-05-25T00:48:00;99065.22;;;21.07;57.80
67738;BME280;54534;43.612;1.572;2023-05-25T00:50:47;99064.19;;;21.08;57.90
67738;BME280;54534;43.612;1.572;2023-05-25T00:53:15;99060.72;;;21.07;57.85
67738;BME280;54534;43.612;1.572;2023-05-25T00:55:44;99059.00;;;21.06;57.85
67738;BME280;54534;43.612;1.572;2023-05-25T00:58:16;99062.53;;;21.07;57.94
67738;BME280;54534;43.612;1.572;2023-05-25T01:00:44;99060.84;;;21.06;57.78
67738;BME280;54534;43.612;1.572;2023-05-25T01:03:14;99054.63;;;21.05;57.78
67738;BME280;54534;43.612;1.572;2023-05-25T01:05:44;99064.47;;;21.05;57.78
67738;BME280;54534;43.612;1.572;2023-05-25T01:08:11;99058.44;;;21.03;57.73
67738;BME280;54534;43.612;1.572;2023-05-25T01:10:39;99063.78;;;21.03;57.92
67738;BME280;54534;43.612;1.572;2023-05-25T01:13:08;99064.63;;;21.03;57.90
67738;BME280;54534;43.612;1.572;2023-05-25T01:15:36;99069.97;;;21.03;57.71
67738;BME280;54534;43.612;1.572;2023-05-25T01:18:02;99061.97;;;21.03;57.87
67738;BME280;54534;43.612;1.572;2023-05-25T01:20:28;99063.78;;;21.03;57.88
67738;BME280;54534;43.612;1.572;2023-05-25T01:23:02;99065.63;;;21.02;57.83
67738;BME280;54534;43.612;1.572;2023-05-25T01:25:42;99071.81;;;21.03;57.84
67738;BME280;54534;43.612;1.572;2023-05-25T01:28:14;99065.72;;;21.00;57.60
67738;BME280;54534;43.612;1.572;2023-05-25T01:30:45;99070.22;;;21.00;57.65
67738;BME280;54534;43.612;1.572;2023-05-25T01:33:11;99070.22;;;21.00;57.87
67738;BME280;54534;43.612;1.572;2023-05-25T01:35:39;99066.72;;;20.99;57.68
67738;BME280;54534;43.612;1.572;2023-05-25T01:38:06;99077.41;;;20.99;57.78
67738;BME280;54534;43.612;1.572;2023-05-25T01:40:32;99075.59;;;21.00;57.58
67738;BME280;54534;43.612;1.572;2023-05-25T01:42:57;99073.91;;;20.99;57.68
67738;BME280;54534;43.612;1.572;2023-05-25T01:45:23;99073.06;;;20.98;57.79
67738;BME280;54534;43.612;1.572;2023-05-25T01:50:22;99067.72;;;20.98;57.74
67738;BME280;54534;43.612;1.572;2023-05-25T01:53:06;99069.38;;;20.99;57.68
67738;BME280;54534;43.612;1.572;2023-05-25T01:55:36;99067.72;;;20.98;57.66
67738;BME280;54534;43.612;1.572;2023-05-25T01:58:03;99058.16;;;20.96;57.48
67738;BME280;54534;43.612;1.572;2023-05-25T02:00:30;99061.69;;;20.96;57.61
67738;BME280;54534;43.612;1.572;2023-05-25T02:02:56;99063.34;;;20.97;57.67
67738;BME280;54534;43.612;1.572;2023-05-25T02:05:22;99066.03;;;20.97;57.69
67738;BME280;54534;43.612;1.572;2023-05-25T02:07:47;99068.84;;;20.96;57.63
67738;BME280;54534;43.612;1.572;2023-05-25T02:10:13;99077.72;;;20.96;57.63
67738;BME280;54534;43.612;1.572;2023-05-25T02:12:38;99076.00;;;20.95;57.62
67738;BME280;54534;43.612;1.572;2023-05-25T02:15:04;99079.53;;;20.96;57.53
67738;BME280;54534;43.612;1.572;2023-05-25T02:17:30;99082.22;;;20.96;57.57
67738;BME280;54534;43.612;1.572;2023-05-25T02:19:55;99081.50;;;20.94;57.48
67738;BME280;54534;43.612;1.572;2023-05-25T02:22:21;99081.34;;;20.95;57.46
67738;BME280;54534;43.612;1.572;2023-05-25T02:24:47;99080.50;;;20.95;57.43
67738;BME280;54534;43.612;1.572;2023-05-25T02:27:12;99080.66;;;20.93;57.49
67738;BME280;54534;43.612;1.572;2023-05-25T02:29:38;99093.88;;;20.95;57.36
67738;BME280;54534;43.612;1.572;2023-05-25T02:32:05;99085.00;;;20.94;57.35
67738;BME280;54534;43.612;1.572;2023-05-25T02:34:30;99080.66;;;20.93;57.41
67738;BME280;54534;43.612;1.572;2023-05-25T02:36:56;99091.34;;;20.93;57.40
67738;BME280;54534;43.612;1.572;2023-05-25T02:39:21;99088.00;;;20.91;57.36
67738;BME280;54534;43.612;1.572;2023-05-25T02:41:47;99090.66;;;20.91;57.37
67738;BME280;54534;43.612;1.572;2023-05-25T02:44:12;99098.69;;;20.91;57.54
67738;BME280;54534;43.612;1.572;2023-05-25T02:46:38;99092.47;;;20.91;57.39
67738;BME280;54534;43.612;1.572;2023-05-25T02:49:03;99094.31;;;20.90;57.29
67738;BME280;54534;43.612;1.572;2023-05-25T02:51:29;99088.00;;;20.91;57.17
67738;BME280;54534;43.612;1.572;2023-05-25T02:53:54;99080.94;;;20.90;57.11
67738;BME280;54534;43.612;1.572;2023-05-25T02:56:20;99090.66;;;20.91;57.23
67738;BME280;54534;43.612;1.572;2023-05-25T02:58:48;99080.94;;;20.90;57.17
67738;BME280;54534;43.612;1.572;2023-05-25T03:01:14;99080.09;;;20.89;57.04
67738;BME280;54534;43.612;1.572;2023-05-25T03:03:45;99080.94;;;20.90;57.15
67738;BME280;54534;43.612;1.572;2023-05-25T03:06:12;99089.94;;;20.89;57.08
67738;BME280;54534;43.612;1.572;2023-05-25T03:08:39;99075.75;;;20.88;57.00
67738;BME280;54534;43.612;1.572;2023-05-25T03:11:05;99080.25;;;20.88;56.86
67738;BME280;54534;43.612;1.572;2023-05-25T03:13:30;99081.09;;;20.88;57.03
67738;BME280;54534;43.612;1.572;2023-05-25T03:15:56;99080.25;;;20.88;56.97
67738;BME280;54534;43.612;1.572;2023-05-25T03:18:21;99082.91;;;20.88;57.03
67738;BME280;54534;43.612;1.572;2023-05-25T03:20:46;99078.53;;;20.87;56.75
67738;BME280;54534;43.612;1.572;2023-05-25T03:23:12;99067.84;;;20.87;56.72
67738;BME280;54534;43.612;1.572;2023-05-25T03:25:37;99072.22;;;20.88;56.92
67738;BME280;54534;43.612;1.572;2023-05-25T03:28:03;99076.72;;;20.87;57.01
67738;BME280;54534;43.612;1.572;2023-05-25T03:30:28;99067.84;;;20.87;56.97
67738;BME280;54534;43.612;1.572;2023-05-25T03:32:54;99068.00;;;20.85;56.95
67738;BME280;54534;43.612;1.572;2023-05-25T03:35:20;99076.88;;;20.86;56.87
67738;BME280;54534;43.612;1.572;2023-05-25T03:37:45;99079.56;;;20.86;56.92
67738;BME280;54534;43.612;1.572;2023-05-25T03:40:11;99082.22;;;20.86;56.87
67738;BME280;54534;43.612;1.572;2023-05-25T03:42:36;99079.56;;;20.86;56.76
67738;BME280;54534;43.612;1.572;2023-05-25T03:45:02;99086.72;;;20.85;56.78
67738;BME280;54534;43.612;1.572;2023-05-25T03:47:28;99077.84;;;20.85;56.68
67738;BME280;54534;43.612;1.572;2023-05-25T03:49:53;99076.16;;;20.84;56.72
67738;BME280;54534;43.612;1.572;2023-05-25T03:52:18;99077.00;;;20.84;56.66
67738;BME280;54534;43.612;1.572;2023-05-25T03:54:44;99080.69;;;20.83;56.65
67738;BME280;54534;43.612;1.572;2023-05-25T03:57:09;99075.34;;;20.83;56.64
67738;BME280;54534;43.612;1.572;2023-05-25T03:59:35;99081.50;;;20.84;56.72
67738;BME280;54534;43.612;1.572;2023-05-25T04:02:00;99062.09;;;20.82;56.61
67738;BME280;54534;43.612;1.572;2023-05-25T04:04:25;99078.00;;;20.83;56.73
67738;BME280;54534;43.612;1.572;2023-05-25T04:06:52;99081.66;;;20.82;56.68
67738;BME280;54534;43.612;1.572;2023-05-25T04:09:18;99078.97;;;20.82;56.65
67738;BME280;54534;43.612;1.572;2023-05-25T04:11:44;99077.16;;;20.83;56.51
67738;BME280;54534;43.612;1.572;2023-05-25T04:14:10;99075.47;;;20.82;56.58
67738;BME280;54534;43.612;1.572;2023-05-25T04:16:36;99079.25;;;20.79;56.53
67738;BME280;54534;43.612;1.572;2023-05-25T04:19:01;99075.47;;;20.82;56.67
67738;BME280;54534;43.612;1.572;2023-05-25T04:21:27;99078.13;;;20.82;56.32
67738;BME280;54534;43.612;1.572;2023-05-25T04:23:52;99080.97;;;20.80;56.39
67738;BME280;54534;43.612;1.572;2023-05-25T04:26:18;99073.91;;;20.79;56.60
67738;BME280;54534;43.612;1.572;2023-05-25T04:28:43;99069.41;;;20.80;56.52
67738;BME280;54534;43.612;1.572;2023-05-25T04:31:09;99074.75;;;20.80;56.59
67738;BME280;54534;43.612;1.572;2023-05-25T04:33:36;99069.41;;;20.80;56.44
67738;BME280;54534;43.612;1.572;2023-05-25T04:36:06;99067.72;;;20.78;56.71
67738;BME280;54534;43.612;1.572;2023-05-25T04:38:33;99065.06;;;20.78;56.42
67738;BME280;54534;43.612;1.572;2023-05-25T04:40:59;99069.41;;;20.80;56.50
67738;BME280;54534;43.612;1.572;2023-05-25T04:43:26;99073.06;;;20.78;56.47
67738;BME280;54534;43.612;1.572;2023-05-25T04:45:57;99074.75;;;20.80;56.37
67738;BME280;54534;43.612;1.572;2023-05-25T04:48:24;99070.53;;;20.77;56.40
67738;BME280;54534;43.612;1.572;2023-05-25T04:50:49;99078.41;;;20.78;56.38
67738;BME280;54534;43.612;1.572;2023-05-25T04:53:15;99083.06;;;20.76;56.46
67738;BME280;54534;43.612;1.572;2023-05-25T04:55:41;99082.09;;;20.77;56.18
67738;BME280;54534;43.612;1.572;2023-05-25T04:58:06;99086.56;;;20.77;56.32
67738;BME280;54534;43.612;1.572;2023-05-25T05:00:32;99086.56;;;20.77;56.52
67738;BME280;54534;43.612;1.572;2023-05-25T05:02:58;99091.06;;;20.76;56.31
67738;BME280;54534;43.612;1.572;2023-05-25T05:05:24;99084.88;;;20.76;56.53
67738;BME280;54534;43.612;1.572;2023-05-25T05:07:50;99093.75;;;20.76;56.45
67738;BME280;54534;43.612;1.572;2023-05-25T05:10:16;99094.75;;;20.75;56.56
67738;BME280;54534;43.612;1.572;2023-05-25T05:12:41;99100.09;;;20.75;56.50
67738;BME280;54534;43.612;1.572;2023-05-25T05:15:07;99092.91;;;20.76;56.59
67738;BME280;54534;43.612;1.572;2023-05-25T05:17:33;99093.03;;;20.74;56.47
67738;BME280;54534;43.612;1.572;2023-05-25T05:19:58;99100.22;;;20.74;56.35
67738;BME280;54534;43.612;1.572;2023-05-25T05:22:24;99096.56;;;20.75;56.36
67738;BME280;54534;43.612;1.572;2023-05-25T05:24:49;99104.72;;;20.73;56.40
67738;BME280;54534;43.612;1.572;2023-05-25T05:27:15;99109.06;;;20.74;56.58
67738;BME280;54534;43.612;1.572;2023-05-25T05:29:40;99097.53;;;20.74;56.41
67738;BME280;54534;43.612;1.572;2023-05-25T05:32:06;99098.38;;;20.74;56.20
67738;BME280;54534;43.612;1.572;2023-05-25T05:34:32;99095.72;;;20.74;56.12
67738;BME280;54534;43.612;1.572;2023-05-25T05:36:58;99099.38;;;20.73;56.25
67738;BME280;54534;43.612;1.572;2023-05-25T05:39:25;99094.88;;;20.74;56.38
67738;BME280;54534;43.612;1.572;2023-05-25T05:41:51;99096.69;;;20.73;56.34
67738;BME280;54534;43.612;1.572;2023-05-25T05:44:17;99104.72;;;20.73;56.23
67738;BME280;54534;43.612;1.572;2023-05-25T05:46:42;99107.38;;;20.73;56.28
67738;BME280;54534;43.612;1.572;2023-05-25T05:49:08;99108.38;;;20.72;56.18
67738;BME280;54534;43.612;1.572;2023-05-25T05:51:33;99107.38;;;20.73;56.36
67738;BME280;54534;43.612;1.572;2023-05-25T05:53:58;99112.72;;;20.73;56.22
67738;BME280;54534;43.612;1.572;2023-05-25T05:56:24;99115.41;;;20.73;56.27
67738;BME280;54534;43.612;1.572;2023-05-25T05:58:50;99111.91;;;20.73;56.54
67738;BME280;54534;43.612;1.572;2023-05-25T06:01:17;99110.19;;;20.72;56.69
67738;BME280;54534;43.612;1.572;2023-05-25T06:03:44;99121.75;;;20.72;56.52
67738;BME280;54534;43.612;1.572;2023-05-25T06:06:10;99117.25;;;20.73;56.51
67738;BME280;54534;43.612;1.572;2023-05-25T06:08:35;99124.25;;;20.74;56.35
67738;BME280;54534;43.612;1.572;2023-05-25T06:11:01;99117.25;;;20.73;56.52
67738;BME280;54534;43.612;1.572;2023-05-25T06:13:26;99117.38;;;20.71;56.72
67738;BME280;54534;43.612;1.572;2023-05-25T06:15:52;99105.72;;;20.72;56.29
67738;BME280;54534;43.612;1.572;2023-05-25T06:18:17;99103.88;;;20.73;56.23
67738;BME280;54534;43.612;1.572;2023-05-25T06:20:43;99113.72;;;20.72;56.29
67738;BME280;54534;43.612;1.572;2023-05-25T06:23:08;99115.53;;;20.72;56.29
67738;BME280;54534;43.612;1.572;2023-05-25T06:25:35;99118.22;;;20.72;56.27
67738;BME280;54534;43.612;1.572;2023-05-25T06:28:01;99115.53;;;20.72;56.29
67738;BME280;54534;43.612;1.572;2023-05-25T06:30:26;99107.53;;;20.72;56.08
67738;BME280;54534;43.612;1.572;2023-05-25T06:32:51;99112.03;;;20.71;56.08
67738;BME280;54534;43.612;1.572;2023-05-25T06:35:17;99104.00;;;20.71;56.22
67738;BME280;54534;43.612;1.572;2023-05-25T06:37:47;99098.66;;;20.71;56.05
67738;BME280;54534;43.612;1.572;2023-05-25T06:40:14;99096.00;;;20.71;56.07
67738;BME280;54534;43.612;1.572;2023-05-25T06:42:39;99101.34;;;20.71;56.02
67738;BME280;54534;43.612;1.572;2023-05-25T06:45:06;99095.16;;;20.71;55.98
67738;BME280;54534;43.612;1.572;2023-05-25T06:47:31;99100.38;;;20.72;55.98
67738;BME280;54534;43.612;1.572;2023-05-25T06:49:57;99103.31;;;20.69;56.00
67738;BME280;54534;43.612;1.572;2023-05-25T06:52:22;99104.84;;;20.72;55.83
67738;BME280;54534;43.612;1.572;2023-05-25T06:54:48;99096.00;;;20.71;55.71
67738;BME280;54534;43.612;1.572;2023-05-25T06:57:13;99097.81;;;20.71;55.85
67738;BME280;54534;43.612;1.572;2023-05-25T06:59:39;99094.31;;;20.70;55.86
67738;BME280;54534;43.612;1.572;2023-05-25T07:02:05;99090.66;;;20.71;55.69
67738;BME280;54534;43.612;1.572;2023-05-25T07:04:30;99095.16;;;20.71;55.83
67738;BME280;54534;43.612;1.572;2023-05-25T07:06:57;99100.50;;;20.71;55.71
67738;BME280;54534;43.612;1.572;2023-05-25T07:09:23;99098.81;;;20.70;55.80
67738;BME280;54534;43.612;1.572;2023-05-25T07:11:48;99089.94;;;20.69;55.60
67738;BME280;54534;43.612;1.572;2023-05-25T07:14:13;99101.50;;;20.70;55.75
67738;BME280;54534;43.612;1.572;2023-05-25T07:16:39;99097.97;;;20.69;55.55
67738;BME280;54534;43.612;1.572;2023-05-25T07:19:04;99097.13;;;20.69;55.67
67738;BME280;54534;43.612;1.572;2023-05-25T07:21:31;99095.31;;;20.69;55.69
67738;BME280;54534;43.612;1.572;2023-05-25T07:23:57;99095.31;;;20.69;55.54
67738;BME280;54534;43.612;1.572;2023-05-25T07:26:22;99089.09;;;20.69;55.73
67738;BME280;54534;43.612;1.572;2023-05-25T07:28:50;99097.97;;;20.69;55.52
67738;BME280;54534;43.612;1.572;2023-05-25T07:31:15;99093.59;;;20.68;55.59
67738;BME280;54534;43.612;1.572;2023-05-25T07:33:41;99101.63;;;20.68;55.60
67738;BME280;54534;43.612;1.572;2023-05-25T07:36:07;99105.13;;;20.69;55.50
67738;BME280;54534;43.612;1.572;2023-05-25T07:38:33;99099.78;;;20.69;55.33
67738;BME280;54534;43.612;1.572;2023-05-25T07:40:59;99099.94;;;20.67;55.54
67738;BME280;54534;43.612;1.572;2023-05-25T07:43:25;99103.44;;;20.67;55.49
67738;BME280;54534;43.612;1.572;2023-05-25T07:45:51;99105.13;;;20.69;55.43
67738;BME280;54534;43.612;1.572;2023-05-25T07:48:16;99098.94;;;20.68;55.36
67738;BME280;54534;43.612;1.572;2023-05-25T07:50:41;99098.09;;;20.67;55.52
67738;BME280;54534;43.612;1.572;2023-05-25T07:53:07;99104.28;;;20.68;55.28
67738;BME280;54534;43.612;1.572;2023-05-25T07:55:32;99099.94;;;20.67;55.44
67738;BME280;54534;43.612;1.572;2023-05-25T07:57:57;99103.44;;;20.67;55.37
67738;BME280;54534;43.612;1.572;2023-05-25T08:00:23;99099.94;;;20.67;55.25
67738;BME280;54534;43.612;1.572;2023-05-25T08:02:49;99106.25;;;20.66;55.03
67738;BME280;54534;43.612;1.572;2023-05-25T08:05:14;99109.78;;;20.66;55.33
67738;BME280;54534;43.612;1.572;2023-05-25T08:07:40;99107.97;;;20.67;55.22
67738;BME280;54534;43.612;1.572;2023-05-25T08:10:06;99112.44;;;20.66;55.24
67738;BME280;54534;43.612;1.572;2023-05-25T08:12:31;99108.94;;;20.66;54.99
67738;BME280;54534;43.612;1.572;2023-05-25T08:14:57;99108.94;;;20.66;55.24
67738;BME280;54534;43.612;1.572;2023-05-25T08:17:22;99112.44;;;20.66;54.89
67738;BME280;54534;43.612;1.572;2023-05-25T08:19:48;99111.59;;;20.66;54.94
67738;BME280;54534;43.612;1.572;2023-05-25T08:22:13;99111.59;;;20.66;54.93
67738;BME280;54534;43.612;1.572;2023-05-25T08:24:39;99119.63;;;20.66;54.89
67738;BME280;54534;43.612;1.572;2023-05-25T08:27:04;99114.28;;;20.66;54.80
67738;BME280;54534;43.612;1.572;2023-05-25T08:29:30;99108.06;;;20.65;54.81
67738;BME280;54534;43.612;1.572;2023-05-25T08:31:55;99109.91;;;20.65;54.79
67738;BME280;54534;43.612;1.572;2023-05-25T08:34:21;99115.25;;;20.65;54.88
67738;BME280;54534;43.612;1.572;2023-05-25T08:36:46;99107.38;;;20.63;54.75
67738;BME280;54534;43.612;1.572;2023-05-25T08:39:12;99102.03;;;20.63;54.59
67738;BME280;54534;43.612;1.572;2023-05-25T08:41:43;99100.22;;;20.64;54.62
67738;BME280;54534;43.612;1.572;2023-05-25T08:44:09;99104.56;;;20.65;54.58
67738;BME280;54534;43.612;1.572;2023-05-25T08:46:35;99109.91;;;20.65;54.54
67738;BME280;54534;43.612;1.572;2023-05-25T08:49:11;99115.41;;;20.63;54.33
67738;BME280;54534;43.612;1.572;2023-05-25T08:51:41;99116.25;;;20.64;54.33
67738;BME280;54534;43.612;1.572;2023-05-25T08:54:08;99115.53;;;20.62;54.45
67738;BME280;54534;43.612;1.572;2023-05-25T08:56:48;99110.06;;;20.63;54.40
67738;BME280;54534;43.612;1.572;2023-05-25T08:59:24;99114.53;;;20.63;54.34
67738;BME280;54534;43.612;1.572;2023-05-25T09:02:00;99115.41;;;20.63;54.36
67738;BME280;54534;43.612;1.572;2023-05-25T09:04:27;99119.03;;;20.62;54.39
67738;BME280;54534;43.612;1.572;2023-05-25T09:06:54;99123.41;;;20.63;54.19
67738;BME280;54534;43.612;1.572;2023-05-25T09:09:20;99119.88;;;20.63;54.29
67738;BME280;54534;43.612;1.572;2023-05-25T09:11:46;99120.03;;;20.61;54.26
67738;BME280;54534;43.612;1.572;2023-05-25T09:14:12;99121.72;;;20.62;54.25
67738;BME280;54534;43.612;1.572;2023-05-25T09:16:38;99112.88;;;20.62;54.32
67738;BME280;54534;43.612;1.572;2023-05-25T09:19:04;99113.69;;;20.62;54.18
67738;BME280;54534;43.612;1.572;2023-05-25T09:21:29;99116.38;;;20.62;54.21
67738;BME280;54534;43.612;1.572;2023-05-25T09:23:55;99121.72;;;20.62;54.18
67738;BME280;54534;43.612;1.572;2023-05-25T09:26:22;99117.22;;;20.63;54.07
67738;BME280;54534;43.612;1.572;2023-05-25T09:28:47;99115.41;;;20.63;54.23
67738;BME280;54534;43.612;1.572;2023-05-25T09:31:14;99118.91;;;20.64;54.07
67738;BME280;54534;43.612;1.572;2023-05-25T09:33:39;99122.56;;;20.63;54.18
67738;BME280;54534;43.612;1.572;2023-05-25T09:36:06;99120.75;;;20.63;54.13
67738;BME280;54534;43.612;1.572;2023-05-25T09:38:31;99107.94;;;20.57;54.01
67738;BME280;54534;43.612;1.572;2023-05-25T09:40:58;99118.06;;;20.63;54.00
67738;BME280;54534;43.612;1.572;2023-05-25T09:43:23;99116.25;;;20.64;53.89
67738;BME280;54534;43.612;1.572;2023-05-25T09:45:51;99106.00;;;20.59;53.90
67738;BME280;54534;43.612;1.572;2023-05-25T09:48:20;99112.72;;;20.63;53.93
67738;BME280;54534;43.612;1.572;2023-05-25T09:50:46;99118.06;;;20.63;54.02
67738;BME280;54534;43.612;1.572;2023-05-25T09:53:11;99117.09;;;20.64;53.89
67738;BME280;54534;43.612;1.572;2023-05-25T09:55:37;99118.91;;;20.64;54.01
67738;BME280;54534;43.612;1.572;2023-05-25T09:58:03;99122.44;;;20.64;53.87
67738;BME280;54534;43.612;1.572;2023-05-25T10:00:29;99111.88;;;20.63;53.99
67738;BME280;54534;43.612;1.572;2023-05-25T10:02:54;99118.91;;;20.64;53.91
67738;BME280;54534;43.612;1.572;2023-05-25T10:05:20;99117.22;;;20.63;53.72
67738;BME280;54534;43.612;1.572;2023-05-25T10:07:46;99113.56;;;20.64;53.69
67738;BME280;54534;43.612;1.572;2023-05-25T10:10:14;99119.03;;;20.62;53.64
67738;BME280;54534;43.612;1.572;2023-05-25T10:12:43;99120.59;;;20.65;53.79
67738;BME280;54534;43.612;1.572;2023-05-25T10:15:11;99121.44;;;20.65;53.58
67738;BME280;54534;43.612;1.572;2023-05-25T10:17:42;99125.94;;;20.65;53.58
67738;BME280;54534;43.612;1.572;2023-05-25T10:20:08;99129.59;;;20.64;53.59
67738;BME280;54534;43.612;1.572;2023-05-25T10:22:49;99126.94;;;20.64;53.62
67738;BME280;54534;43.612;1.572;2023-05-25T10:25:28;99125.22;;;20.63;53.67
67738;BME280;54534;43.612;1.572;2023-05-25T10:28:01;99133.13;;;20.64;53.56
67738;BME280;54534;43.612;1.572;2023-05-25T10:30:27;99132.41;;;20.62;53.20
67738;BME280;54534;43.612;1.572;2023-05-25T10:32:56;99124.25;;;20.64;53.35
67738;BME280;54534;43.612;1.572;2023-05-25T10:35:25;99121.44;;;20.65;53.39
67738;BME280;54534;43.612;1.572;2023-05-25T10:37:52;99133.13;;;20.64;53.50
67738;BME280;54534;43.612;1.572;2023-05-25T10:40:19;99133.13;;;20.64;53.50
67738;BME280;54534;43.612;1.572;2023-05-25T10:42:46;99129.44;;;20.65;53.35
67738;BME280;54534;43.612;1.572;2023-05-25T10:45:12;99134.78;;;20.65;53.40
67738;BME280;54534;43.612;1.572;2023-05-25T10:47:39;99125.94;;;20.65;53.27
67738;BME280;54534;43.612;1.572;2023-05-25T10:50:20;99124.97;;;20.66;53.33
67738;BME280;54534;43.612;1.572;2023-05-25T10:52:57;99129.34;;;20.67;53.25
67738;BME280;54534;43.612;1.572;2023-05-25T10:55:23;99130.16;;;20.67;53.32
67738;BME280;54534;43.612;1.572;2023-05-25T10:58:09;99139.00;;;20.68;53.57
67738;BME280;54534;43.612;1.572;2023-05-25T11:00:35;99136.50;;;20.66;53.51
67738;BME280;54534;43.612;1.572;2023-05-25T11:03:00;99136.50;;;20.66;53.53
67738;BME280;54534;43.612;1.572;2023-05-25T11:13:33;99139.00;;;20.68;53.17
67738;BME280;54534;43.612;1.572;2023-05-25T11:18:58;99148.84;;;20.67;53.16
67738;BME280;54534;43.612;1.572;2023-05-25T11:24:09;99156.88;;;20.67;53.27
67738;BME280;54534;43.612;1.572;2023-05-25T11:26:35;99161.38;;;20.67;53.13
67738;BME280;54534;43.612;1.572;2023-05-25T11:29:12;99156.03;;;20.67;53.25
67738;BME280;54534;43.612;1.572;2023-05-25T11:31:37;99149.84;;;20.66;53.32
67738;BME280;54534;43.612;1.572;2023-05-25T11:34:03;99151.53;;;20.67;53.16
67738;BME280;54534;43.612;1.572;2023-05-25T11:36:30;99150.81;;;20.65;53.42
67738;BME280;54534;43.612;1.572;2023-05-25T11:38:59;99139.16;;;20.66;53.28
67738;BME280;54534;43.612;1.572;2023-05-25T11:41:28;99142.81;;;20.65;53.39
67738;BME280;54534;43.612;1.572;2023-05-25T11:43:54;99142.69;;;20.67;53.06
67738;BME280;54534;43.612;1.572;2023-05-25T11:46:20;99143.50;;;20.67;52.87
67738;BME280;54534;43.612;1.572;2023-05-25T11:48:53;99146.19;;;20.67;52.68
67738;BME280;54534;43.612;1.572;2023-05-25T11:51:26;99150.56;;;20.69;52.62
67738;BME280;54534;43.612;1.572;2023-05-25T11:53:52;99142.53;;;20.69;52.69
67738;BME280;54534;43.612;1.572;2023-05-25T11:56:20;99145.22;;;20.69;52.38
67738;BME280;54534;43.612;1.572;2023-05-25T11:58:49;99142.53;;;20.69;52.24
67738;BME280;54534;43.612;1.572;2023-05-25T12:01:23;99148.56;;;20.71;52.20
67738;BME280;54534;43.612;1.572;2023-05-25T12:03:53;99132.69;;;20.69;52.24
67738;BME280;54534;43.612;1.572;2023-05-25T12:06:24;99138.75;;;20.71;51.98
67738;BME280;54534;43.612;1.572;2023-05-25T12:08:51;99133.41;;;20.71;52.20
67738;BME280;54534;43.612;1.572;2023-05-25T12:11:17;99137.06;;;20.70;51.95
67738;BME280;54534;43.612;1.572;2023-05-25T12:13:42;99136.06;;;20.71;52.09
67738;BME280;54534;43.612;1.572;2023-05-25T12:16:08;99136.06;;;20.71;51.83
67738;BME280;54534;43.612;1.572;2023-05-25T12:18:33;99125.38;;;20.71;51.91
67738;BME280;54534;43.612;1.572;2023-05-25T12:20:59;99130.72;;;20.71;52.02
67738;BME280;54534;43.612;1.572;2023-05-25T12:23:24;99121.75;;;20.72;51.94
67738;BME280;54534;43.612;1.572;2023-05-25T12:26:07;99113.72;;;20.72;51.82
67738;BME280;54534;43.612;1.572;2023-05-25T12:28:33;99111.06;;;20.72;51.96
67738;BME280;54534;43.612;1.572;2023-05-25T12:31:18;99112.31;;;20.68;51.73
67738;BME280;54534;43.612;1.572;2023-05-25T12:33:45;99118.06;;;20.73;51.77
67738;BME280;54534;43.612;1.572;2023-05-25T12:36:10;99114.69;;;20.71;51.72
67738;BME280;54534;43.612;1.572;2023-05-25T12:38:35;99128.75;;;20.73;51.71
67738;BME280;54534;43.612;1.572;2023-05-25T12:41:05;99125.25;;;20.73;51.69
67738;BME280;54534;43.612;1.572;2023-05-25T12:43:38;99118.06;;;20.73;51.55
67738;BME280;54534;43.612;1.572;2023-05-25T12:46:03;99121.75;;;20.72;51.54
67738;BME280;54534;43.612;1.572;2023-05-25T12:48:29;99121.59;;;20.74;51.63
67738;BME280;54534;43.612;1.572;2023-05-25T12:50:56;99112.72;;;20.73;51.45
67738;BME280;54534;43.612;1.572;2023-05-25T12:53:22;99123.41;;;20.73;51.36
67738;BME280;54534;43.612;1.572;2023-05-25T12:55:47;99113.56;;;20.74;51.42
67738;BME280;54534;43.612;1.572;2023-05-25T12:58:26;99113.56;;;20.74;51.35
67738;BME280;54534;43.612;1.572;2023-05-25T13:00:51;99108.22;;;20.74;51.41
67738;BME280;54534;43.612;1.572;2023-05-25T13:03:17;99106.41;;;20.74;51.45
67738;BME280;54534;43.612;1.572;2023-05-25T13:05:42;99092.34;;;20.72;51.41
67738;BME280;54534;43.612;1.572;2023-05-25T13:08:10;99101.06;;;20.74;51.46
67738;BME280;54534;43.612;1.572;2023-05-25T13:10:36;99093.91;;;20.75;51.20
67738;BME280;54534;43.612;1.572;2023-05-25T13:13:02;99100.09;;;20.75;50.94
67738;BME280;54534;43.612;1.572;2023-05-25T13:15:29;99105.44;;;20.75;51.01